Time;durP1;ratioP1;P1;durP2;ratioP2;P2;SDS_P1;SDS_P2;PMS_P1;PMS_P2;Temp;Humidity;BMP_temperature;BMP_pressure;BME280_temperature;BME280_humidity;BME280_pressure;Samples;Min_cycle;Max_cycle;Signal;HPM_P1;HPM_P2
2022/10/23 00:03:20;;;;;;;146.70;137.73;;;;;;;;;;10107391;28;20404;-73
2022/10/23 00:08:16;;;;;;;147.05;138.35;;;;;;;;;;10119900;28;20038;-73
2022/10/23 00:13:13;;;;;;;146.85;138.07;;;;;;;;;;10117191;28;20042;-73
2022/10/23 00:18:09;;;;;;;150.68;141.43;;;;;;;;;;10122032;28;20047;-73
2022/10/23 00:23:05;;;;;;;152.85;143.43;;;;;;;;;;10117649;28;20035;-73
2022/10/23 00:28:02;;;;;;;153.60;143.80;;;;;;;;;;10111766;28;20059;-73
2022/10/23 00:32:58;;;;;;;151.38;141.73;;;;;;;;;;10113895;28;20066;-73
2022/10/23 00:37:54;;;;;;;149.07;140.25;;;;;;;;;;10108593;28;20035;-72
2022/10/23 00:42:50;;;;;;;150.45;141.05;;;;;;;;;;10096795;28;20045;-72
2022/10/23 00:47:47;;;;;;;149.80;140.20;;;;;;;;;;10122586;28;20057;-73
2022/10/23 00:52:54;;;;;;;144.85;135.75;;;;;;;;;;10097660;28;20509;-73
2022/10/23 00:57:51;;;;;;;149.75;139.93;;;;;;;;;;10133814;28;20053;-73
2022/10/23 01:02:47;;;;;;;145.77;136.85;;;;;;;;;;10148059;28;20129;-73
2022/10/23 01:08:00;;;;;;;151.35;141.75;;;;;;;;;;10137175;28;20046;-73
2022/10/23 01:12:57;;;;;;;145.43;136.52;;;;;;;;;;10133904;28;20526;-74
2022/10/23 01:18:01;;;;;;;149.32;140.20;;;;;;;;;;10133185;28;20394;-73
2022/10/23 01:23:16;;;;;;;153.02;143.43;;;;;;;;;;10131125;28;20078;-72
2022/10/23 01:28:15;;;;;;;151.38;141.85;;;;;;;;;;10146588;28;20491;-73
2022/10/23 01:33:16;;;;;;;148.85;139.75;;;;;;;;;;10132367;28;20051;-73
2022/10/23 01:38:15;;;;;;;149.27;139.82;;;;;;;;;;10138754;28;20437;-73
2022/10/23 01:43:15;;;;;;;144.68;135.15;;;;;;;;;;10152064;28;20413;-73
2022/10/23 01:48:14;;;;;;;145.55;136.07;;;;;;;;;;10138697;28;20412;-73
2022/10/23 01:53:10;;;;;;;148.32;138.70;;;;;;;;;;10134349;28;20043;-72
2022/10/23 01:58:09;;;;;;;144.50;135.30;;;;;;;;;;10134130;28;20722;-73
2022/10/23 02:03:05;;;;;;;145.27;136.23;;;;;;;;;;10150431;28;20042;-72
2022/10/23 02:08:02;;;;;;;145.50;136.32;;;;;;;;;;10133910;28;20042;-72
2022/10/23 02:13:07;;;;;;;145.75;136.48;;;;;;;;;;10155825;28;20130;-72
2022/10/23 02:18:04;;;;;;;144.20;134.75;;;;;;;;;;10133289;28;20773;-73
2022/10/23 02:23:15;;;;;;;146.15;136.73;;;;;;;;;;10147447;28;20050;-72
2022/10/23 02:28:15;;;;;;;147.07;138.00;;;;;;;;;;10150075;28;20564;-73
2022/10/23 02:33:11;;;;;;;146.35;136.80;;;;;;;;;;10155816;28;20642;-72
2022/10/23 02:38:27;;;;;;;148.27;138.88;;;;;;;;;;10142319;28;20050;-73
2022/10/23 02:43:26;;;;;;;148.80;139.50;;;;;;;;;;10139657;28;20050;-73
2022/10/23 02:48:27;;;;;;;149.82;140.18;;;;;;;;;;10149337;28;20063;-73
2022/10/23 02:53:36;;;;;;;143.77;134.40;;;;;;;;;;10152383;28;20057;-74
2022/10/23 02:58:35;;;;;;;147.35;138.15;;;;;;;;;;10152515;28;20046;-72
2022/10/23 03:03:34;;;;;;;143.63;134.27;;;;;;;;;;10140165;28;20065;-73
2022/10/23 03:08:39;;;;;;;148.57;139.23;;;;;;;;;;10134079;28;20078;-73
2022/10/23 03:13:35;;;;;;;149.57;140.10;;;;;;;;;;10133790;28;20043;-73
2022/10/23 03:18:32;;;;;;;151.95;142.38;;;;;;;;;;10121554;28;20039;-72
2022/10/23 03:23:28;;;;;;;148.15;139.18;;;;;;;;;;10143119;28;20517;-73
2022/10/23 03:28:24;;;;;;;150.40;141.43;;;;;;;;;;10150773;28;20047;-73
2022/10/23 03:33:20;;;;;;;154.85;145.50;;;;;;;;;;10166070;28;20046;-72
2022/10/23 03:38:16;;;;;;;149.13;140.13;;;;;;;;;;10140499;28;20043;-73
2022/10/23 03:43:13;;;;;;;153.05;143.75;;;;;;;;;;10140888;28;20041;-72
2022/10/23 03:48:09;;;;;;;149.15;140.05;;;;;;;;;;10141443;28;20042;-73
2022/10/23 03:53:05;;;;;;;151.50;142.38;;;;;;;;;;10140481;28;20501;-72
2022/10/23 03:58:02;;;;;;;151.95;142.45;;;;;;;;;;10146082;28;20053;-72
2022/10/23 04:02:58;;;;;;;150.82;141.95;;;;;;;;;;10137969;28;20381;-72
2022/10/23 04:07:55;;;;;;;145.57;136.60;;;;;;;;;;10135211;28;20046;-72
2022/10/23 04:12:51;;;;;;;148.77;139.35;;;;;;;;;;10143522;28;20044;-72
2022/10/23 04:17:48;;;;;;;141.82;133.35;;;;;;;;;;10139436;28;20038;-74
2022/10/23 04:22:44;;;;;;;144.32;135.70;;;;;;;;;;10143905;28;20436;-72
2022/10/23 04:27:41;;;;;;;148.75;139.52;;;;;;;;;;10136526;28;20050;-72
2022/10/23 04:32:38;;;;;;;150.25;141.20;;;;;;;;;;10135657;28;20047;-72
2022/10/23 04:37:34;;;;;;;147.00;138.35;;;;;;;;;;10134671;28;20046;-72
2022/10/23 04:42:30;;;;;;;148.52;139.70;;;;;;;;;;10141210;28;20058;-72
2022/10/23 04:47:26;;;;;;;144.55;136.10;;;;;;;;;;10145049;28;20046;-72
2022/10/23 04:52:23;;;;;;;147.10;138.35;;;;;;;;;;10142321;28;20050;-72
2022/10/23 04:57:19;;;;;;;147.13;138.52;;;;;;;;;;10132900;28;20535;-73
2022/10/23 05:02:15;;;;;;;141.32;133.02;;;;;;;;;;10137215;28;20035;-73
2022/10/23 05:07:11;;;;;;;140.50;132.00;;;;;;;;;;10139510;28;20135;-73
2022/10/23 05:12:08;;;;;;;147.77;138.85;;;;;;;;;;10133847;28;20113;-73
2022/10/23 05:17:10;;;;;;;140.68;132.27;;;;;;;;;;10135929;28;20050;-72
2022/10/23 05:22:07;;;;;;;137.40;129.15;;;;;;;;;;10137645;28;20394;-73
2022/10/23 05:27:03;;;;;;;136.35;128.30;;;;;;;;;;10138611;28;20047;-72
2022/10/23 05:32:01;;;;;;;135.13;126.93;;;;;;;;;;10141410;28;20064;-72
2022/10/23 05:36:57;;;;;;;132.75;124.68;;;;;;;;;;10132371;28;20520;-72
2022/10/23 05:41:54;;;;;;;130.73;122.93;;;;;;;;;;10132499;28;20035;-72
2022/10/23 05:46:50;;;;;;;129.82;121.65;;;;;;;;;;10143563;28;20058;-72
2022/10/23 05:51:46;;;;;;;137.70;129.25;;;;;;;;;;10140414;28;20044;-72
2022/10/23 05:56:43;;;;;;;132.50;123.78;;;;;;;;;;10131382;28;20044;-72
2022/10/23 06:01:39;;;;;;;131.88;123.40;;;;;;;;;;10105846;28;20042;-72
2022/10/23 06:06:35;;;;;;;131.50;123.03;;;;;;;;;;10112188;28;20058;-72
2022/10/23 06:11:32;;;;;;;141.82;132.95;;;;;;;;;;10105539;28;20431;-72
2022/10/23 06:16:28;;;;;;;136.77;128.02;;;;;;;;;;10127796;28;20049;-73
2022/10/23 06:21:25;;;;;;;136.25;127.63;;;;;;;;;;10135671;28;20572;-72
2022/10/23 06:26:21;;;;;;;134.82;126.22;;;;;;;;;;10107078;28;20056;-72
2022/10/23 06:31:25;;;;;;;134.77;126.13;;;;;;;;;;10116335;28;20038;-72
2022/10/23 06:36:21;;;;;;;136.70;128.05;;;;;;;;;;10118199;28;20057;-69
2022/10/23 06:41:19;;;;;;;132.35;123.95;;;;;;;;;;10148009;28;20042;-69
2022/10/23 06:46:16;;;;;;;130.50;122.40;;;;;;;;;;10129532;28;20043;-69
2022/10/23 06:51:15;;;;;;;139.85;130.48;;;;;;;;;;10139013;28;20046;-72
2022/10/23 06:56:11;;;;;;;132.15;123.60;;;;;;;;;;10125444;28;20828;-72
2022/10/23 07:01:10;;;;;;;138.18;129.18;;;;;;;;;;10168187;28;20501;-72
2022/10/23 07:06:07;;;;;;;129.65;121.45;;;;;;;;;;10127488;28;20074;-72
2022/10/23 07:11:06;;;;;;;134.35;125.90;;;;;;;;;;10149077;28;20416;-72
2022/10/23 07:16:13;;;;;;;133.30;124.60;;;;;;;;;;10151264;28;20533;-72
2022/10/23 07:21:10;;;;;;;134.60;125.97;;;;;;;;;;10153200;28;20046;-72
2022/10/23 07:26:10;;;;;;;130.10;121.88;;;;;;;;;;10147792;28;20501;-72
2022/10/23 07:31:07;;;;;;;127.47;119.47;;;;;;;;;;10140618;28;20053;-72
2022/10/23 07:36:04;;;;;;;131.13;122.45;;;;;;;;;;10138204;28;20070;-72
2022/10/23 07:41:00;;;;;;;127.22;118.97;;;;;;;;;;10112360;28;20055;-72
2022/10/23 07:45:57;;;;;;;125.03;116.90;;;;;;;;;;10117766;28;20046;-72
2022/10/23 07:50:56;;;;;;;127.53;119.03;;;;;;;;;;10105604;28;20051;-72
2022/10/23 07:55:54;;;;;;;125.63;117.15;;;;;;;;;;10123344;28;20416;-72
2022/10/23 08:01:00;;;;;;;129.40;120.60;;;;;;;;;;10159174;28;20518;-72
2022/10/23 08:05:57;;;;;;;129.23;120.15;;;;;;;;;;10144607;28;20043;-72
2022/10/23 08:10:54;;;;;;;138.10;129.05;;;;;;;;;;10154219;28;20452;-72
2022/10/23 08:15:51;;;;;;;135.20;126.32;;;;;;;;;;10149550;28;20416;-72
2022/10/23 08:20:49;;;;;;;134.98;126.28;;;;;;;;;;10145093;28;20042;-72
2022/10/23 08:25:45;;;;;;;138.50;129.60;;;;;;;;;;10146236;28;20042;-72
2022/10/23 08:30:42;;;;;;;136.63;127.78;;;;;;;;;;10135378;28;20050;-73
2022/10/23 08:35:38;;;;;;;147.30;137.93;;;;;;;;;;10141749;28;20064;-72
2022/10/23 08:40:34;;;;;;;147.07;138.10;;;;;;;;;;10148810;28;20416;-72
2022/10/23 08:45:44;;;;;;;163.52;153.63;;;;;;;;;;10148192;28;20066;-73
2022/10/23 08:50:47;;;;;;;160.07;150.57;;;;;;;;;;10146121;28;20058;-72
2022/10/23 08:55:45;;;;;;;153.10;144.10;;;;;;;;;;10148877;28;20042;-73
2022/10/23 09:00:42;;;;;;;148.80;140.43;;;;;;;;;;10147044;28;20073;-73
2022/10/23 09:05:51;;;;;;;142.63;134.27;;;;;;;;;;10095078;28;20137;-73
2022/10/23 09:10:57;;;;;;;143.45;135.45;;;;;;;;;;10139842;28;20776;-73
2022/10/23 09:16:12;;;;;;;142.23;134.40;;;;;;;;;;10130091;28;20046;-73
2022/10/23 09:21:09;;;;;;;133.85;126.10;;;;;;;;;;10141832;28;20394;-73
2022/10/23 09:26:13;;;;;;;136.50;128.90;;;;;;;;;;10133554;28;20425;-73
2022/10/23 09:31:11;;;;;;;137.43;130.13;;;;;;;;;;10125362;28;20440;-73
2022/10/23 09:36:13;;;;;;;138.00;130.82;;;;;;;;;;10135936;28;20045;-73
2022/10/23 09:41:30;;;;;;;123.97;117.57;;;;;;;;;;10118750;28;20551;-73
2022/10/23 09:46:35;;;;;;;120.72;114.63;;;;;;;;;;10138469;28;20046;-73
2022/10/23 09:51:32;;;;;;;113.85;108.05;;;;;;;;;;10146224;28;20046;-73
2022/10/23 09:56:32;;;;;;;105.53;100.15;;;;;;;;;;10115076;28;20051;-73
2022/10/23 10:01:31;;;;;;;105.60;99.95;;;;;;;;;;10101559;28;20501;-73
2022/10/23 10:06:31;;;;;;;100.35;95.00;;;;;;;;;;10109341;28;20133;-73
2022/10/23 10:11:42;;;;;;;85.75;80.78;;;;;;;;;;10103218;28;20376;-73
2022/10/23 10:17:03;;;;;;;80.47;76.05;;;;;;;;;;10119647;28;20053;-74
2022/10/23 10:21:59;;;;;;;78.57;74.25;;;;;;;;;;10090486;28;20413;-74
2022/10/23 10:27:17;;;;;;;75.05;71.05;;;;;;;;;;10112985;28;20066;-74
2022/10/23 10:32:30;;;;;;;72.30;67.63;;;;;;;;;;10132304;28;20082;-74
2022/10/23 10:37:27;;;;;;;63.67;59.67;;;;;;;;;;10133718;28;20051;-73
2022/10/23 10:42:29;;;;;;;61.78;58.00;;;;;;;;;;10133596;28;20428;-73
2022/10/23 10:47:44;;;;;;;63.88;60.38;;;;;;;;;;10146267;28;20043;-73
2022/10/23 10:52:46;;;;;;;61.40;58.03;;;;;;;;;;10146056;28;20049;-73
2022/10/23 10:57:47;;;;;;;61.25;57.60;;;;;;;;;;10127926;28;20130;-73
2022/10/23 11:03:13;;;;;;;55.10;51.90;;;;;;;;;;10124067;28;20051;-73
2022/10/23 11:08:15;;;;;;;57.17;53.00;;;;;;;;;;10132309;28;20046;-74
2022/10/23 11:13:39;;;;;;;50.15;47.25;;;;;;;;;;10154803;28;20047;-73
2022/10/23 11:18:36;;;;;;;49.40;46.10;;;;;;;;;;10141440;28;20134;-73
2022/10/23 11:23:51;;;;;;;46.30;42.92;;;;;;;;;;10150666;28;20038;-73
2022/10/23 11:28:50;;;;;;;44.08;41.13;;;;;;;;;;10130070;28;20046;-73
2022/10/23 11:33:46;;;;;;;46.33;43.15;;;;;;;;;;10104548;28;20043;-73
2022/10/23 11:38:45;;;;;;;52.28;48.47;;;;;;;;;;10113484;28;20051;-73
2022/10/23 11:43:55;;;;;;;39.83;37.28;;;;;;;;;;10141608;28;20514;-74
2022/10/23 11:48:52;;;;;;;39.75;37.13;;;;;;;;;;10134744;28;20046;-73
2022/10/23 11:53:49;;;;;;;36.95;34.45;;;;;;;;;;10152231;28;20648;-74
2022/10/23 11:58:46;;;;;;;34.70;32.25;;;;;;;;;;10123820;28;20039;-73
2022/10/23 12:03:58;;;;;;;26.83;24.98;;;;;;;;;;10114444;28;20050;-74
2022/10/23 12:08:58;;;;;;;27.33;25.13;;;;;;;;;;10140999;28;20543;-73
2022/10/23 12:13:54;;;;;;;25.80;23.73;;;;;;;;;;10159035;28;20048;-73
2022/10/23 12:18:52;;;;;;;25.45;23.33;;;;;;;;;;10160537;28;20432;-73
2022/10/23 12:23:48;;;;;;;25.38;23.13;;;;;;;;;;10136753;28;20049;-73
2022/10/23 12:28:53;;;;;;;23.30;21.63;;;;;;;;;;10131136;28;20529;-73
2022/10/23 12:34:00;;;;;;;21.30;19.70;;;;;;;;;;10144120;28;20080;-73
2022/10/23 12:38:57;;;;;;;22.25;20.65;;;;;;;;;;10161208;28;20042;-74
2022/10/23 12:43:57;;;;;;;26.00;23.80;;;;;;;;;;10163515;28;20057;-73
2022/10/23 12:48:55;;;;;;;25.95;24.15;;;;;;;;;;10164033;28;20050;-74
2022/10/23 12:53:51;;;;;;;32.50;30.30;;;;;;;;;;10161242;28;20053;-73
2022/10/23 12:58:50;;;;;;;35.92;33.60;;;;;;;;;;10157101;28;20042;-73
2022/10/23 13:03:46;;;;;;;43.60;40.80;;;;;;;;;;10148646;28;20057;-74
2022/10/23 13:08:44;;;;;;;51.72;48.38;;;;;;;;;;10117926;28;20520;-73
2022/10/23 13:13:41;;;;;;;45.30;42.47;;;;;;;;;;10111983;28;20039;-74
2022/10/23 13:18:40;;;;;;;46.53;43.72;;;;;;;;;;10133500;28;20038;-74
2022/10/23 13:23:39;;;;;;;45.22;42.22;;;;;;;;;;10143503;28;20038;-73
2022/10/23 13:28:42;;;;;;;52.92;49.30;;;;;;;;;;10132435;28;21169;-74
2022/10/23 13:33:38;;;;;;;57.42;53.72;;;;;;;;;;10110898;28;20502;-73
2022/10/23 13:38:37;;;;;;;53.55;50.45;;;;;;;;;;10103189;28;20409;-73
2022/10/23 13:43:33;;;;;;;48.40;45.42;;;;;;;;;;10127232;28;20043;-73
2022/10/23 13:48:29;;;;;;;48.72;45.67;;;;;;;;;;10112279;28;20065;-73
2022/10/23 13:53:26;;;;;;;47.17;44.33;;;;;;;;;;10120579;28;20050;-73
2022/10/23 13:58:22;;;;;;;53.78;50.58;;;;;;;;;;10114963;28;20050;-73
2022/10/23 14:03:23;;;;;;;54.67;51.58;;;;;;;;;;10106594;28;20405;-73
2022/10/23 14:08:19;;;;;;;58.92;55.65;;;;;;;;;;10131361;28;20068;-73
2022/10/23 14:13:15;;;;;;;58.42;55.13;;;;;;;;;;10119211;28;20046;-74
2022/10/23 14:18:11;;;;;;;60.92;57.50;;;;;;;;;;10131040;28;20053;-74
2022/10/23 14:23:08;;;;;;;66.38;62.70;;;;;;;;;;10149466;28;20436;-73
2022/10/23 14:28:04;;;;;;;61.70;58.38;;;;;;;;;;10141683;28;20429;-73
2022/10/23 14:33:00;;;;;;;69.75;65.72;;;;;;;;;;10138714;28;20046;-73
2022/10/23 14:37:57;;;;;;;69.07;65.57;;;;;;;;;;10142946;28;20042;-73
2022/10/23 14:42:53;;;;;;;74.75;71.03;;;;;;;;;;10147553;28;20887;-73
2022/10/23 14:47:49;;;;;;;73.97;70.13;;;;;;;;;;10138312;28;20046;-73
2022/10/23 14:52:46;;;;;;;83.65;79.00;;;;;;;;;;10140290;28;20056;-73
2022/10/23 14:57:42;;;;;;;89.57;84.88;;;;;;;;;;10145622;28;20504;-74
2022/10/23 15:02:39;;;;;;;89.50;84.65;;;;;;;;;;10148342;28;20045;-74
2022/10/23 15:07:35;;;;;;;98.35;93.32;;;;;;;;;;10129251;28;20560;-73
2022/10/23 15:12:33;;;;;;;95.88;90.93;;;;;;;;;;10160974;28;20042;-74
2022/10/23 15:17:30;;;;;;;102.60;97.50;;;;;;;;;;10132958;28;20043;-73
2022/10/23 15:22:27;;;;;;;105.53;99.95;;;;;;;;;;10107384;28;20050;-74
2022/10/23 15:27:23;;;;;;;107.32;101.80;;;;;;;;;;10102177;28;20047;-73
2022/10/23 15:32:19;;;;;;;101.68;96.18;;;;;;;;;;10152839;28;20130;-73
2022/10/23 15:37:15;;;;;;;107.45;101.55;;;;;;;;;;10150176;28;20626;-73
2022/10/23 15:42:12;;;;;;;106.30;100.50;;;;;;;;;;10156181;28;20050;-73
2022/10/23 15:47:08;;;;;;;109.93;103.50;;;;;;;;;;10159229;28;20530;-73
2022/10/23 15:52:04;;;;;;;113.10;107.10;;;;;;;;;;10151514;28;20667;-73
2022/10/23 15:57:01;;;;;;;117.63;111.05;;;;;;;;;;10132101;28;20055;-73
2022/10/23 16:01:58;;;;;;;122.63;116.13;;;;;;;;;;10123047;28;20042;-74
2022/10/23 16:06:54;;;;;;;118.10;111.60;;;;;;;;;;10145549;28;20057;-73
2022/10/23 16:11:50;;;;;;;123.60;116.50;;;;;;;;;;10134627;28;20056;-73
2022/10/23 16:16:46;;;;;;;123.13;116.10;;;;;;;;;;10097425;28;20058;-74
2022/10/23 16:21:43;;;;;;;123.50;116.45;;;;;;;;;;10117437;28;20419;-73
2022/10/23 16:26:39;;;;;;;122.35;115.53;;;;;;;;;;10146327;28;20043;-74
2022/10/23 16:31:36;;;;;;;120.28;113.40;;;;;;;;;;10125340;28;20062;-73
2022/10/23 16:36:33;;;;;;;126.15;118.45;;;;;;;;;;10114215;28;20608;-70
2022/10/23 16:41:29;;;;;;;120.43;113.88;;;;;;;;;;10127558;28;20417;-71
2022/10/23 16:46:26;;;;;;;127.18;119.60;;;;;;;;;;10120420;28;20046;-73
2022/10/23 16:51:23;;;;;;;122.72;115.65;;;;;;;;;;10147413;28;20057;-73
2022/10/23 16:56:21;;;;;;;128.77;121.68;;;;;;;;;;10145055;28;20058;-73
2022/10/23 17:01:19;;;;;;;125.15;118.05;;;;;;;;;;10146426;28;20057;-73
2022/10/23 17:06:17;;;;;;;118.10;111.38;;;;;;;;;;10143651;28;20073;-73
2022/10/23 17:11:13;;;;;;;118.82;112.15;;;;;;;;;;10151838;28;20042;-73
2022/10/23 17:16:11;;;;;;;121.75;114.93;;;;;;;;;;10149126;28;20053;-73
2022/10/23 17:21:07;;;;;;;125.00;117.72;;;;;;;;;;10152902;28;20047;-73
2022/10/23 17:26:06;;;;;;;123.25;116.28;;;;;;;;;;10152877;28;20039;-73
2022/10/23 17:31:02;;;;;;;124.53;117.28;;;;;;;;;;10152165;28;20053;-73
2022/10/23 17:36:00;;;;;;;124.32;117.15;;;;;;;;;;10158155;28;20046;-74
2022/10/23 17:40:56;;;;;;;125.03;117.68;;;;;;;;;;10136776;28;20812;-75
2022/10/23 17:45:52;;;;;;;124.10;116.70;;;;;;;;;;10150224;28;20046;-74
2022/10/23 17:50:48;;;;;;;126.20;118.70;;;;;;;;;;10146289;28;20704;-73
2022/10/23 17:55:45;;;;;;;126.82;119.25;;;;;;;;;;10156618;28;20556;-73
2022/10/23 18:00:41;;;;;;;123.00;115.70;;;;;;;;;;10150093;28;20045;-72
2022/10/23 18:05:37;;;;;;;122.60;115.55;;;;;;;;;;10155332;28;20496;-72
2022/10/23 18:10:38;;;;;;;126.03;118.43;;;;;;;;;;10147171;28;20046;-73
2022/10/23 18:15:35;;;;;;;130.60;122.75;;;;;;;;;;10148932;28;20042;-72
2022/10/23 18:20:31;;;;;;;130.32;122.72;;;;;;;;;;10144743;28;20531;-73
2022/10/23 18:25:27;;;;;;;135.60;127.70;;;;;;;;;;10150293;28;20042;-72
2022/10/23 18:30:23;;;;;;;130.68;123.20;;;;;;;;;;10149164;28;20413;-72
2022/10/23 18:35:20;;;;;;;131.93;124.30;;;;;;;;;;10143301;28;20054;-72
2022/10/23 18:40:16;;;;;;;129.73;122.22;;;;;;;;;;10105792;28;20035;-72
2022/10/23 18:45:12;;;;;;;128.85;121.65;;;;;;;;;;10121261;28;20504;-72
2022/10/23 18:50:09;;;;;;;126.22;119.00;;;;;;;;;;10107664;28;20051;-72
2022/10/23 18:55:06;;;;;;;127.90;120.30;;;;;;;;;;10109892;28;20060;-73
2022/10/23 19:00:07;;;;;;;128.52;121.32;;;;;;;;;;10153511;28;20050;-72
2022/10/23 19:05:04;;;;;;;129.13;121.88;;;;;;;;;;10116416;28;20042;-72
2022/10/23 19:10:01;;;;;;;130.93;123.45;;;;;;;;;;10103405;28;20544;-73
2022/10/23 19:14:59;;;;;;;129.05;121.70;;;;;;;;;;10155849;28;20052;-73
2022/10/23 19:20:00;;;;;;;127.78;120.53;;;;;;;;;;10109279;28;20436;-73
2022/10/23 19:25:00;;;;;;;128.90;121.15;;;;;;;;;;10160950;28;20039;-72
2022/10/23 19:29:59;;;;;;;130.13;122.35;;;;;;;;;;10155634;28;20412;-73
2022/10/23 19:34:57;;;;;;;130.43;122.95;;;;;;;;;;10153452;28;20042;-74
2022/10/23 19:39:53;;;;;;;131.57;124.22;;;;;;;;;;10156362;28;20413;-72
2022/10/23 19:44:50;;;;;;;131.60;123.95;;;;;;;;;;10150982;28;20046;-72
2022/10/23 19:49:49;;;;;;;129.52;122.18;;;;;;;;;;10106450;28;20513;-74
2022/10/23 19:54:45;;;;;;;131.02;123.63;;;;;;;;;;10147796;28;20072;-73
2022/10/23 19:59:42;;;;;;;128.15;120.57;;;;;;;;;;10151574;28;20054;-73
2022/10/23 20:04:38;;;;;;;126.60;119.50;;;;;;;;;;10121471;28;20038;-72
2022/10/23 20:09:34;;;;;;;132.70;125.13;;;;;;;;;;10104098;28;20413;-73
2022/10/23 20:14:31;;;;;;;130.98;123.50;;;;;;;;;;10103354;28;20508;-72
2022/10/23 20:19:27;;;;;;;131.70;124.18;;;;;;;;;;10096988;28;20043;-72
2022/10/23 20:24:23;;;;;;;131.73;124.38;;;;;;;;;;10154040;28;20677;-73
2022/10/23 20:29:20;;;;;;;135.80;127.78;;;;;;;;;;10115624;28;20701;-72
2022/10/23 20:34:17;;;;;;;137.65;129.80;;;;;;;;;;10147730;28;20042;-72
2022/10/23 20:39:16;;;;;;;133.30;125.70;;;;;;;;;;10153380;28;20405;-72
2022/10/23 20:44:14;;;;;;;135.80;127.90;;;;;;;;;;10115090;28;20047;-73
2022/10/23 20:49:15;;;;;;;;;;;;;;;;;;10097315;28;20049;-72
2022/10/23 20:54:11;;;;;;;122.28;115.05;;;;;;;;;;10110178;28;19927;-72
2022/10/23 20:59:12;;;;;;;109.03;102.40;;;;;;;;;;10105658;28;20052;-72
2022/10/23 21:04:10;;;;;;;113.22;106.20;;;;;;;;;;10097930;28;20050;-72
2022/10/23 21:09:06;;;;;;;119.55;112.40;;;;;;;;;;10109459;28;20039;-74
2022/10/23 21:14:03;;;;;;;117.70;110.78;;;;;;;;;;10105992;28;20057;-73
2022/10/23 21:19:00;;;;;;;115.50;108.40;;;;;;;;;;10111172;28;20050;-72
2022/10/23 21:23:59;;;;;;;117.63;110.43;;;;;;;;;;10139525;28;20448;-72
2022/10/23 21:28:56;;;;;;;117.63;110.43;;;;;;;;;;10150897;28;20045;-73
2022/10/23 21:34:12;;;;;;;116.82;109.57;;;;;;;;;;10151795;28;20046;-72
2022/10/23 21:39:08;;;;;;;118.03;110.63;;;;;;;;;;10145654;28;20570;-72
2022/10/23 21:44:05;;;;;;;117.57;110.38;;;;;;;;;;10151994;28;20038;-72
2022/10/23 21:49:01;;;;;;;109.97;102.90;;;;;;;;;;10131469;28;20046;-72
2022/10/23 21:53:57;;;;;;;106.97;100.28;;;;;;;;;;10151933;28;20043;-72
2022/10/23 21:58:54;;;;;;;106.75;99.93;;;;;;;;;;10124332;28;20038;-72
2022/10/23 22:03:51;;;;;;;108.78;101.72;;;;;;;;;;10118906;28;20579;-72
2022/10/23 22:08:47;;;;;;;130.70;122.53;;;;;;;;;;10114695;28;20053;-72
2022/10/23 22:13:44;;;;;;;130.20;122.35;;;;;;;;;;10141372;28;20519;-72
2022/10/23 22:18:40;;;;;;;128.38;120.53;;;;;;;;;;10114927;28;20053;-72
2022/10/23 22:23:37;;;;;;;129.65;121.68;;;;;;;;;;10132738;28;20097;-72
2022/10/23 22:28:33;;;;;;;125.47;117.88;;;;;;;;;;10140878;28;20043;-72
2022/10/23 22:33:30;;;;;;;126.07;118.57;;;;;;;;;;10148748;28;20084;-72
2022/10/23 22:38:26;;;;;;;123.93;116.70;;;;;;;;;;10157133;28;20097;-72
2022/10/23 22:43:22;;;;;;;135.55;127.70;;;;;;;;;;10122814;28;20645;-72
2022/10/23 22:48:18;;;;;;;130.88;123.28;;;;;;;;;;10131325;28;20042;-72
2022/10/23 22:53:15;;;;;;;132.30;124.70;;;;;;;;;;10148655;28;20053;-72
2022/10/23 22:58:11;;;;;;;124.85;117.55;;;;;;;;;;10114853;28;20509;-72
2022/10/23 23:03:07;;;;;;;123.88;116.90;;;;;;;;;;10088706;28;20038;-72
2022/10/23 23:08:04;;;;;;;122.75;115.75;;;;;;;;;;10092865;28;20057;-72
2022/10/23 23:13:00;;;;;;;123.70;116.45;;;;;;;;;;10099702;28;20051;-72
2022/10/23 23:17:59;;;;;;;112.80;106.20;;;;;;;;;;10098579;28;20054;-72
2022/10/23 23:22:55;;;;;;;107.20;100.63;;;;;;;;;;10109680;28;20047;-72
2022/10/23 23:27:51;;;;;;;103.88;97.70;;;;;;;;;;10123509;28;20046;-72
2022/10/23 23:32:50;;;;;;;101.40;95.38;;;;;;;;;;10133729;28;20046;-72
2022/10/23 23:37:46;;;;;;;101.57;95.47;;;;;;;;;;10138042;28;20042;-72
2022/10/23 23:42:42;;;;;;;101.90;95.50;;;;;;;;;;10131054;28;20497;-72
2022/10/23 23:47:39;;;;;;;101.45;94.75;;;;;;;;;;10114083;28;20038;-72
2022/10/23 23:52:35;;;;;;;98.88;92.53;;;;;;;;;;10115174;28;20134;-72
2022/10/23 23:57:32;;;;;;;97.63;91.07;;;;;;;;;;10136896;28;20049;-72
